This demonstration page uses our WeatherBlox Daily Observations layout. Learn more.

36.19886, -115.1175

Hourly Observations for January 23, 2020

Temp ( °F °C ) Dew Point ( °F °C ) Humidity (%) Winds ( mph kmh ) Pressure ( in mb ) Visibility ( mi km ) Precip ( " mm )
12:53 am 00:53 Clear 45 7.2 35 1.7 68 68 WNW 7 11 30.26 1025 10 16.0934 0 0
1:53 am 01:53 Clear 46 7.8 35 1.7 66 66 WNW 6 9 30.26 1025 10 16.0934 0 0
2:53 am 02:53 Clear 47 8.3 33 0.6 59 59 NNW 8 13 30.25 1024 10 16.0934 0 0
3:53 am 03:53 Clear 48 8.9 32 0 54 54 NNW 3 6 30.25 1024 10 16.0934 0 0
4:53 am 04:53 Clear 45 7.2 32 0 61 61 NE 3 6 30.26 1025 10 16.0934 0 0
5:53 am 05:53 Clear 46 7.8 32 0 58 58 W 6 9 30.27 1025 10 16.0934 0 0
6:53 am 06:53 Sunny 47 8.3 32 0 56 56 NW 6 9 30.29 1026 10 16.0934 0 0
7:53 am 07:53 Sunny 48 8.9 33 0.6 56 56 Calm 30.3 1026 10 16.0934 0 0
8:53 am 08:53 Sunny 52 11.1 33 0.6 49 49 WSW 5 7 30.3 1026 10 16.0934 0 0
9:53 am 09:53 Sunny 56 13.3 34 1.1 44 44 NNW 5 7 30.3 1026 10 16.0934 0 0
10:53 am 10:53 Sunny 59 15 34 1.1 39 39 Calm 30.28 1025 10 16.0934 0 0
1:53 pm 13:53 Sunny 65 18.3 32 0 29 29 Calm 30.16 1021 10 16.0934 0 0
2:53 pm 14:53 Sunny 67 19.4 32 0 27 27 ESE 5 7 30.14 1021 10 16.0934 0 0
3:53 pm 15:53 Sunny 65 18.3 31 -0.6 28 28 ESE 6 9 30.13 1020 10 16.0934 0 0
4:53 pm 16:53 Sunny 64 17.8 31 -0.6 29 29 Calm 30.12 1020 10 16.0934 0 0
5:53 pm 17:53 Clear 60 15.6 31 -0.6 33 33 Calm 30.14 1021 10 16.0934 0 0
6:53 pm 18:53 Clear 59 15 32 0 36 36 WNW 5 7 30.15 1021 10 16.0934 0 0
7:53 pm 19:53 Clear 56 13.3 33 0.6 42 42 WNW 6 9 30.15 1021 10 16.0934 0 0
8:53 pm 20:53 Clear 53 11.7 33 0.6 47 47 W 6 9 30.15 1021 10 16.0934 0 0
9:53 pm 21:53 Clear 52 11.1 32 0 47 47 W 7 11 30.15 1021 10 16.0934 0 0
10:53 pm 22:53 Clear 51 10.6 31 -0.6 46 46 ESE 5 7 30.16 1021 10 16.0934 0 0
11:53 pm 23:53 Clear 49 9.4 31 -0.6 50 50 Calm 30.15 1021 10 16.0934 0 0

Powered by AerisWeather